createdAt,value
2023-08-08T00:00:01.552Z,62.18
2023-08-08T00:02:28.678Z,62.13
2023-08-08T00:04:56.265Z,62.15
2023-08-08T00:07:23.038Z,62.20
2023-08-08T00:09:50.165Z,62.21
2023-08-08T00:12:17.328Z,62.15
2023-08-08T00:14:44.199Z,62.17
2023-08-08T00:17:11.276Z,62.25
2023-08-08T00:19:38.812Z,62.23
2023-08-08T00:22:06.378Z,62.27
2023-08-08T00:24:33.321Z,62.35
2023-08-08T00:27:00.664Z,62.31
2023-08-08T00:29:28.098Z,62.35
2023-08-08T00:31:55.356Z,62.35
2023-08-08T00:34:22.586Z,62.24
2023-08-08T00:36:49.393Z,62.32
2023-08-08T00:39:16.642Z,62.28
2023-08-08T00:41:43.805Z,62.29
2023-08-08T00:44:11.608Z,62.36
2023-08-08T00:46:38.530Z,62.38
2023-08-08T00:49:06.122Z,62.33
2023-08-08T00:51:33.795Z,62.31
2023-08-08T00:54:00.752Z,62.31
2023-08-08T00:56:27.952Z,62.36
2023-08-08T00:58:55.484Z,62.35
2023-08-08T01:01:22.921Z,62.42
2023-08-08T01:03:50.774Z,62.49
2023-08-08T01:06:24.554Z,62.42
2023-08-08T01:09:01.852Z,62.36
2023-08-08T01:11:32.490Z,62.44
2023-08-08T01:14:00.802Z,62.43
2023-08-08T01:16:28.541Z,62.45
2023-08-08T01:18:57.050Z,62.43
2023-08-08T01:21:25.658Z,62.26
2023-08-08T01:24:02.130Z,62.15
2023-08-08T01:26:30.054Z,62.19
2023-08-08T01:28:57.201Z,62.31
2023-08-08T01:31:24.712Z,62.26
2023-08-08T01:33:51.532Z,62.34
2023-08-08T01:36:29.008Z,62.39
2023-08-08T01:39:05.332Z,62.41
2023-08-08T01:41:35.749Z,62.30
2023-08-08T01:44:04.138Z,62.28
2023-08-08T01:46:32.056Z,62.12
2023-08-08T01:49:00.650Z,62.13
2023-08-08T01:51:29.159Z,62.13
2023-08-08T01:53:56.358Z,62.04
2023-08-08T01:56:23.323Z,62.10
2023-08-08T01:58:50.791Z,62.16
2023-08-08T02:01:17.892Z,62.18
2023-08-08T02:03:45.421Z,62.11
2023-08-08T02:06:12.694Z,62.22
2023-08-08T02:08:39.532Z,62.26
2023-08-08T02:11:07.673Z,62.21
2023-08-08T02:13:34.542Z,62.17
2023-08-08T02:16:01.708Z,62.19
2023-08-08T02:18:29.184Z,62.29
2023-08-08T02:20:55.997Z,62.41
2023-08-08T02:23:23.305Z,62.43
2023-08-08T02:25:50.460Z,62.42
2023-08-08T02:28:17.234Z,62.45
2023-08-08T02:30:45.613Z,62.55
2023-08-08T02:33:12.759Z,62.48
2023-08-08T02:35:39.941Z,62.47
2023-08-08T02:38:06.688Z,62.56
2023-08-08T02:40:35.050Z,62.66
2023-08-08T02:43:02.184Z,62.66
2023-08-08T02:45:29.161Z,62.65
2023-08-08T02:47:56.385Z,62.63
2023-08-08T02:50:23.956Z,62.65
2023-08-08T02:52:51.244Z,62.69
2023-08-08T02:55:18.782Z,62.71
2023-08-08T02:57:45.570Z,62.68
2023-08-08T03:00:13.304Z,62.57
2023-08-08T03:02:40.509Z,62.63
2023-08-08T03:05:08.093Z,62.62
2023-08-08T03:07:35.199Z,62.76
2023-08-08T03:10:02.694Z,62.75
2023-08-08T03:12:29.868Z,62.79
2023-08-08T03:14:56.774Z,62.77
2023-08-08T03:17:24.127Z,62.75
2023-08-08T03:19:51.360Z,62.77
2023-08-08T03:22:18.635Z,62.85
2023-08-08T03:24:46.237Z,62.88
2023-08-08T03:27:13.395Z,62.93
2023-08-08T03:29:40.485Z,62.88
2023-08-08T03:32:07.845Z,62.90
2023-08-08T03:34:35.803Z,62.78
2023-08-08T03:37:02.646Z,62.77
2023-08-08T03:39:29.902Z,62.79
2023-08-08T03:41:57.565Z,62.78
2023-08-08T03:44:25.004Z,62.71
2023-08-08T03:46:55.093Z,62.83
2023-08-08T03:49:24.734Z,62.79
2023-08-08T03:51:51.830Z,62.88
2023-08-08T03:54:19.811Z,62.72
2023-08-08T03:56:47.277Z,62.75
2023-08-08T03:59:14.076Z,62.70
2023-08-08T04:01:41.183Z,62.72
2023-08-08T04:04:08.670Z,62.66
2023-08-08T04:06:35.973Z,62.76
2023-08-08T04:09:03.127Z,62.65
2023-08-08T04:11:30.304Z,62.62
2023-08-08T04:13:57.444Z,62.61
2023-08-08T04:16:26.710Z,62.65
2023-08-08T04:18:54.232Z,62.57
2023-08-08T04:21:21.311Z,62.51
2023-08-08T04:23:48.409Z,62.36
2023-08-08T04:26:16.008Z,62.41
2023-08-08T04:28:43.465Z,62.34
2023-08-08T04:31:10.319Z,62.20
2023-08-08T04:33:37.657Z,62.09
2023-08-08T04:36:05.228Z,62.09
2023-08-08T04:38:32.613Z,61.99
2023-08-08T04:40:59.416Z,61.89
2023-08-08T04:43:26.514Z,61.80
2023-08-08T04:45:53.670Z,61.71
2023-08-08T04:48:20.826Z,61.66
2023-08-08T04:50:48.608Z,61.60
2023-08-08T04:53:16.038Z,61.58
2023-08-08T04:55:43.485Z,61.59
2023-08-08T04:58:10.607Z,61.53
2023-08-08T05:00:37.781Z,61.40
2023-08-08T05:03:05.138Z,61.30
2023-08-08T05:05:32.693Z,61.23
2023-08-08T05:07:59.549Z,61.02
2023-08-08T05:10:26.476Z,60.91
2023-08-08T05:12:53.947Z,60.76
2023-08-08T05:15:20.761Z,60.64
2023-08-08T05:17:47.696Z,60.54
2023-08-08T05:20:15.185Z,60.39
2023-08-08T05:22:41.982Z,60.20
2023-08-08T05:25:09.266Z,60.06
2023-08-08T05:27:37.115Z,60.04
2023-08-08T05:30:04.418Z,59.99
2023-08-08T05:32:31.527Z,59.87
2023-08-08T05:34:59.217Z,59.70
2023-08-08T05:37:25.982Z,59.57
2023-08-08T05:39:53.602Z,59.38
2023-08-08T05:42:21.130Z,59.22
2023-08-08T05:44:48.276Z,59.08
2023-08-08T05:47:15.428Z,58.96
2023-08-08T05:49:43.737Z,58.88
2023-08-08T05:52:11.133Z,58.87
2023-08-08T05:54:38.241Z,58.87
2023-08-08T05:57:06.166Z,58.82
2023-08-08T05:59:33.293Z,58.77
2023-08-08T06:02:01.060Z,58.70
2023-08-08T06:04:28.693Z,58.68
2023-08-08T06:06:56.170Z,58.62
2023-08-08T06:09:23.822Z,58.49
2023-08-08T06:11:50.640Z,58.38
2023-08-08T06:14:18.712Z,58.45
2023-08-08T06:16:45.864Z,58.33
2023-08-08T06:19:14.946Z,58.29
2023-08-08T06:21:42.564Z,58.22
2023-08-08T06:24:09.693Z,58.26
2023-08-08T06:26:36.508Z,58.19
2023-08-08T06:29:03.768Z,58.15
2023-08-08T06:31:31.704Z,57.99
2023-08-08T06:33:58.514Z,57.93
2023-08-08T06:36:25.925Z,57.87
2023-08-08T06:38:52.660Z,57.84
2023-08-08T06:41:20.223Z,57.95
2023-08-08T06:43:47.344Z,57.98
2023-08-08T06:46:14.551Z,57.95
2023-08-08T06:48:44.708Z,57.92
2023-08-08T06:51:11.655Z,57.91
2023-08-08T06:53:38.729Z,57.93
2023-08-08T06:56:05.887Z,57.89
2023-08-08T06:58:33.008Z,57.88
2023-08-08T07:01:00.151Z,57.85
2023-08-08T07:03:27.622Z,57.78
2023-08-08T07:05:55.129Z,57.80
2023-08-08T07:08:22.285Z,57.80
2023-08-08T07:12:30.212Z,56.58
2023-08-08T07:14:58.239Z,56.58
2023-08-08T07:17:25.387Z,57.52
2023-08-08T07:19:53.104Z,57.47
2023-08-08T07:22:20.597Z,57.42
2023-08-08T07:24:48.018Z,57.34
2023-08-08T07:27:15.130Z,57.27
2023-08-08T07:29:42.211Z,57.25
2023-08-08T07:32:09.985Z,57.13
2023-08-08T07:34:37.115Z,56.96
2023-08-08T07:37:04.420Z,56.77
2023-08-08T07:39:31.600Z,56.73
2023-08-08T07:41:59.259Z,56.60
2023-08-08T07:44:26.467Z,56.33
2023-08-08T07:46:53.645Z,56.18
2023-08-08T07:49:23.006Z,56.05
2023-08-08T07:51:50.180Z,55.93
2023-08-08T07:54:17.599Z,55.88
2023-08-08T07:56:44.916Z,55.79
2023-08-08T07:59:11.681Z,55.83
2023-08-08T08:01:39.116Z,55.77
2023-08-08T08:04:06.010Z,55.74
2023-08-08T08:06:33.553Z,55.80
2023-08-08T08:09:00.653Z,55.75
2023-08-08T08:11:28.359Z,55.72
2023-08-08T08:13:55.436Z,55.65
2023-08-08T08:16:22.605Z,55.53
2023-08-08T08:18:49.761Z,55.38
2023-08-08T08:21:18.536Z,55.29
2023-08-08T08:23:47.619Z,55.31
2023-08-08T08:26:14.377Z,55.14
2023-08-08T08:28:41.539Z,55.08
2023-08-08T08:31:09.232Z,54.94
2023-08-08T08:33:36.509Z,54.80
2023-08-08T08:36:03.432Z,54.69
2023-08-08T08:38:30.888Z,54.59
2023-08-08T08:40:58.417Z,54.52
2023-08-08T08:43:25.852Z,54.46
2023-08-08T08:45:55.317Z,54.34
2023-08-08T08:48:23.274Z,54.21
2023-08-08T08:50:50.800Z,54.08
2023-08-08T08:53:19.313Z,53.96
2023-08-08T08:55:48.774Z,53.94
2023-08-08T08:58:17.998Z,53.89
2023-08-08T09:00:47.218Z,53.77
2023-08-08T09:03:14.647Z,53.68
2023-08-08T09:05:43.651Z,53.65
2023-08-08T09:08:11.071Z,53.54
2023-08-08T09:10:38.781Z,53.45
2023-08-08T09:13:06.120Z,53.42
2023-08-08T09:15:33.852Z,53.31
2023-08-08T09:18:01.841Z,53.23
2023-08-08T09:20:29.981Z,53.09
2023-08-08T09:22:58.389Z,53.06
2023-08-08T09:25:26.069Z,52.90
2023-08-08T09:27:54.812Z,52.83
2023-08-08T09:30:22.531Z,52.72
2023-08-08T09:32:49.945Z,52.58
2023-08-08T09:35:16.938Z,52.43
2023-08-08T09:37:45.212Z,52.24
2023-08-08T09:40:13.130Z,52.04
2023-08-08T09:42:42.292Z,51.91
2023-08-08T09:45:09.939Z,51.73
2023-08-08T09:47:37.504Z,51.77
2023-08-08T09:50:07.038Z,51.76
2023-08-08T09:52:40.198Z,51.57
2023-08-08T09:55:10.894Z,51.56
2023-08-08T09:57:40.852Z,51.56
2023-08-08T10:00:11.990Z,51.47
2023-08-08T10:02:39.835Z,51.43
2023-08-08T10:05:06.974Z,51.21
2023-08-08T10:07:34.939Z,51.08
2023-08-08T10:10:02.522Z,51.03
2023-08-08T10:12:29.605Z,50.94
2023-08-08T10:14:57.245Z,50.82
2023-08-08T10:17:24.760Z,50.75
2023-08-08T10:19:53.542Z,50.55
2023-08-08T10:22:25.655Z,50.30
2023-08-08T10:24:55.339Z,50.29
2023-08-08T10:27:30.806Z,50.30
2023-08-08T10:30:12.054Z,50.13
2023-08-08T10:32:50.074Z,49.83
2023-08-08T10:35:18.061Z,49.61
2023-08-08T10:37:58.863Z,49.49
2023-08-08T10:40:35.105Z,49.34
2023-08-08T10:43:16.011Z,49.05
2023-08-08T10:45:48.190Z,48.65
2023-08-08T10:48:19.635Z,48.55
2023-08-08T10:50:47.784Z,48.28
2023-08-08T10:53:14.797Z,48.06
2023-08-08T10:55:42.513Z,48.00
2023-08-08T10:58:13.916Z,47.86
2023-08-08T11:00:41.829Z,47.87
2023-08-08T11:03:10.536Z,47.66
2023-08-08T11:05:39.353Z,47.62
2023-08-08T11:08:08.061Z,47.70
2023-08-08T11:10:39.764Z,47.51
2023-08-08T11:13:08.670Z,47.47
2023-08-08T11:15:37.882Z,47.62
2023-08-08T11:18:05.988Z,47.72
2023-08-08T11:20:37.553Z,47.77
2023-08-08T11:23:07.318Z,47.93
2023-08-08T11:25:34.181Z,48.16
2023-08-08T11:28:01.279Z,48.26
2023-08-08T11:30:31.174Z,48.38
2023-08-08T11:35:28.701Z,48.52
2023-08-08T11:37:59.805Z,48.67
2023-08-08T11:40:29.423Z,48.79
2023-08-08T11:42:58.932Z,48.75
2023-08-08T11:45:26.338Z,48.74
2023-08-08T11:47:57.342Z,48.55
2023-08-08T11:50:26.878Z,48.51
2023-08-08T11:52:56.045Z,48.46
2023-08-08T11:55:29.174Z,48.54
2023-08-08T11:58:01.388Z,48.62
2023-08-08T12:00:31.391Z,48.72
2023-08-08T12:02:59.293Z,48.89
2023-08-08T12:05:27.372Z,49.08
2023-08-08T12:07:54.746Z,48.94
2023-08-08T12:10:24.018Z,49.12
2023-08-08T12:13:01.302Z,49.31
2023-08-08T12:15:33.621Z,49.33
2023-08-08T12:18:01.333Z,49.53
2023-08-08T12:20:32.606Z,49.67
2023-08-08T12:22:59.966Z,49.78
2023-08-08T12:25:27.467Z,49.93
2023-08-08T12:27:54.349Z,50.08
2023-08-08T12:30:21.275Z,50.23
2023-08-08T12:32:48.805Z,50.40
2023-08-08T12:35:17.987Z,50.45
2023-08-08T12:37:44.875Z,50.56
2023-08-08T12:40:13.151Z,50.69
2023-08-08T12:42:40.181Z,50.83
2023-08-08T12:45:11.299Z,50.84
2023-08-08T12:47:38.850Z,50.92
2023-08-08T12:50:07.394Z,50.93
2023-08-08T12:52:35.858Z,50.92
2023-08-08T12:55:03.983Z,50.98
2023-08-08T12:57:31.099Z,51.10
2023-08-08T12:59:58.540Z,51.16
2023-08-08T13:02:25.754Z,51.22
2023-08-08T13:04:52.724Z,51.28
2023-08-08T13:07:20.137Z,51.36
2023-08-08T13:09:47.248Z,51.39
2023-08-08T13:12:14.396Z,51.41
2023-08-08T13:14:41.552Z,51.35
2023-08-08T13:17:08.688Z,51.38
2023-08-08T13:19:35.778Z,51.42
2023-08-08T13:22:04.326Z,51.46
2023-08-08T13:24:31.786Z,51.48
2023-08-08T13:26:58.560Z,51.52
2023-08-08T13:29:25.711Z,51.53
2023-08-08T13:31:53.191Z,51.48
2023-08-08T13:34:20.277Z,51.45
2023-08-08T13:36:47.749Z,51.39
2023-08-08T13:39:14.863Z,51.34
2023-08-08T13:41:41.702Z,51.18
2023-08-08T13:44:09.107Z,51.17
2023-08-08T13:46:36.362Z,51.26
2023-08-08T13:49:03.367Z,51.10
2023-08-08T13:51:30.484Z,50.93
2023-08-08T13:53:57.978Z,50.88
2023-08-08T13:56:25.325Z,50.88
2023-08-08T13:58:52.403Z,50.83
2023-08-08T14:01:19.386Z,50.83
2023-08-08T14:03:47.022Z,50.90
2023-08-08T14:06:14.208Z,50.86
2023-08-08T14:08:41.652Z,50.83
2023-08-08T14:11:08.878Z,50.63
2023-08-08T14:13:36.529Z,50.38
2023-08-08T14:16:04.168Z,50.31
2023-08-08T14:18:31.351Z,50.08
2023-08-08T14:20:58.834Z,49.98
2023-08-08T14:23:25.943Z,49.94
2023-08-08T14:25:53.356Z,49.55
2023-08-08T14:28:20.189Z,49.34
2023-08-08T14:30:47.357Z,49.18
2023-08-08T14:33:16.463Z,48.78
2023-08-08T14:35:44.161Z,48.58
2023-08-08T14:38:11.428Z,48.36
2023-08-08T14:40:38.904Z,48.34
2023-08-08T14:43:11.586Z,47.92
2023-08-08T14:45:42.523Z,47.81
2023-08-08T14:48:09.740Z,47.50
2023-08-08T14:50:36.601Z,47.63
2023-08-08T14:53:04.292Z,47.77
2023-08-08T14:55:31.145Z,47.72
2023-08-08T14:57:58.066Z,47.85
2023-08-08T15:00:25.445Z,48.04
2023-08-08T15:02:52.624Z,48.34
2023-08-08T15:05:20.133Z,48.30
2023-08-08T15:07:46.944Z,48.44
2023-08-08T15:10:14.038Z,48.49
2023-08-08T15:12:42.245Z,48.64
2023-08-08T15:15:10.173Z,48.79
2023-08-08T15:17:37.205Z,48.93
2023-08-08T15:20:05.638Z,48.99
2023-08-08T15:22:32.802Z,49.05
2023-08-08T15:25:00.249Z,49.02
2023-08-08T15:27:27.358Z,49.14
2023-08-08T15:29:54.143Z,49.19
2023-08-08T15:32:21.641Z,49.31
2023-08-08T15:34:48.464Z,49.25
2023-08-08T15:37:15.293Z,49.34
2023-08-08T15:39:42.853Z,49.46
2023-08-08T15:42:09.701Z,49.47
2023-08-08T15:44:36.795Z,49.56
2023-08-08T15:47:04.333Z,49.67
2023-08-08T15:49:31.840Z,49.65
2023-08-08T15:51:58.758Z,49.53
2023-08-08T15:54:26.363Z,49.52
2023-08-08T15:56:53.171Z,49.18
2023-08-08T15:59:20.296Z,49.08
2023-08-08T16:01:47.527Z,48.73
2023-08-08T16:04:17.494Z,48.69
2023-08-08T16:06:44.936Z,48.41
2023-08-08T16:09:12.103Z,47.97
2023-08-08T16:11:38.895Z,48.02
2023-08-08T16:14:06.759Z,47.96
2023-08-08T16:16:33.808Z,47.78
2023-08-08T16:19:01.171Z,47.87
2023-08-08T16:21:28.645Z,48.00
2023-08-08T16:23:55.497Z,48.13
2023-08-08T16:26:22.319Z,47.99
2023-08-08T16:28:49.767Z,47.99
2023-08-08T16:31:18.154Z,47.70
2023-08-08T16:33:45.123Z,47.70
2023-08-08T16:36:12.342Z,47.84
2023-08-08T16:38:39.821Z,47.88
2023-08-08T16:41:06.654Z,47.71
2023-08-08T16:43:38.215Z,47.71
2023-08-08T16:46:07.217Z,47.83
2023-08-08T16:48:34.537Z,47.91
2023-08-08T16:51:01.623Z,47.79
2023-08-08T16:53:28.775Z,47.65
2023-08-08T16:55:56.147Z,47.42
2023-08-08T16:58:23.633Z,47.31
2023-08-08T17:00:53.794Z,47.18
2023-08-08T17:03:22.081Z,47.10
2023-08-08T17:05:49.241Z,47.01
2023-08-08T17:08:16.859Z,46.87
2023-08-08T17:10:44.581Z,46.94
2023-08-08T17:13:11.716Z,46.95
2023-08-08T17:15:39.604Z,47.00
2023-08-08T17:18:06.455Z,46.96
2023-08-08T17:20:34.109Z,47.00
2023-08-08T17:23:01.427Z,47.07
2023-08-08T17:25:29.218Z,47.18
2023-08-08T17:27:56.922Z,47.33
2023-08-08T17:30:25.459Z,47.49
2023-08-08T17:32:53.002Z,47.59
2023-08-08T17:35:20.408Z,47.58
2023-08-08T17:37:48.481Z,47.67
2023-08-08T17:40:15.883Z,47.81
2023-08-08T17:42:43.562Z,48.14
2023-08-08T17:45:11.775Z,48.34
2023-08-08T17:47:39.933Z,48.49
2023-08-08T17:50:08.551Z,48.48
2023-08-08T17:52:35.857Z,48.60
2023-08-08T17:55:23.377Z,48.72
2023-08-08T17:57:51.280Z,48.77
2023-08-08T18:00:19.007Z,48.88
2023-08-08T18:02:47.140Z,49.07
2023-08-08T18:05:16.469Z,49.26
2023-08-08T18:07:47.643Z,49.41
2023-08-08T18:10:15.771Z,49.66
2023-08-08T18:12:44.448Z,49.87
2023-08-08T18:15:11.927Z,50.07
2023-08-08T18:17:39.755Z,50.21
2023-08-08T18:20:11.730Z,50.36
2023-08-08T18:22:41.224Z,50.55
2023-08-08T18:25:10.365Z,50.69
2023-08-08T18:27:39.487Z,50.81
2023-08-08T18:30:08.841Z,50.95
2023-08-08T18:32:42.114Z,51.09
2023-08-08T18:35:12.984Z,51.27
2023-08-08T18:37:43.873Z,51.46
2023-08-08T18:40:21.508Z,51.59
2023-08-08T18:42:50.690Z,51.81
2023-08-08T18:45:21.090Z,51.90
2023-08-08T18:47:49.841Z,51.91
2023-08-08T18:50:18.042Z,52.12
2023-08-08T18:52:48.293Z,52.19
2023-08-08T18:55:18.307Z,52.35
2023-08-08T18:57:46.661Z,52.45
2023-08-08T19:00:17.161Z,52.48
2023-08-08T19:02:46.345Z,52.60
2023-08-08T19:05:15.862Z,52.64
2023-08-08T19:07:43.201Z,52.84
2023-08-08T19:10:11.735Z,52.87
2023-08-08T19:12:41.253Z,52.96
2023-08-08T19:15:10.257Z,53.08
2023-08-08T19:17:53.674Z,53.23
2023-08-08T19:20:24.784Z,53.22
2023-08-08T19:22:52.500Z,53.26
2023-08-08T19:25:19.923Z,53.32
2023-08-08T19:27:48.394Z,53.39
2023-08-08T19:30:17.143Z,53.48
2023-08-08T19:32:44.635Z,53.60
2023-08-08T19:35:12.133Z,53.59
2023-08-08T19:37:39.546Z,53.65
2023-08-08T19:40:08.112Z,53.75
2023-08-08T19:42:35.548Z,53.83
2023-08-08T19:45:04.840Z,53.75
2023-08-08T19:47:32.729Z,53.67
2023-08-08T19:50:00.229Z,53.71
2023-08-08T19:52:27.290Z,53.71
2023-08-08T19:54:55.320Z,53.71
2023-08-08T19:57:22.535Z,53.81
2023-08-08T19:59:54.615Z,53.85
2023-08-08T20:02:23.639Z,53.89
2023-08-08T20:04:51.851Z,53.88
2023-08-08T20:07:18.678Z,53.89
2023-08-08T20:09:46.604Z,53.94
2023-08-08T20:12:14.555Z,53.95
2023-08-08T20:14:42.903Z,53.96
2023-08-08T20:17:10.766Z,54.07
2023-08-08T20:19:38.569Z,54.11
2023-08-08T20:22:06.177Z,54.13
2023-08-08T20:24:35.393Z,54.13
2023-08-08T20:27:02.532Z,54.22
2023-08-08T20:29:30.185Z,54.21
2023-08-08T20:31:58.118Z,54.23
2023-08-08T20:34:29.323Z,54.23
2023-08-08T20:36:56.519Z,54.25
2023-08-08T20:39:23.727Z,54.32
2023-08-08T20:41:51.294Z,54.40
2023-08-08T20:44:18.709Z,54.39
2023-08-08T20:46:45.718Z,54.48
2023-08-08T20:49:12.974Z,54.43
2023-08-08T20:51:40.845Z,54.52
2023-08-08T20:54:08.610Z,54.49
2023-08-08T20:56:36.020Z,54.43
2023-08-08T20:59:03.926Z,54.44
2023-08-08T21:01:30.731Z,54.50
2023-08-08T21:03:57.869Z,54.54
2023-08-08T21:06:26.918Z,54.50
2023-08-08T21:08:54.024Z,54.54
2023-08-08T21:11:21.161Z,54.58
2023-08-08T21:13:48.573Z,54.70
2023-08-08T21:16:16.577Z,54.67
2023-08-08T21:18:43.377Z,54.69
2023-08-08T21:21:10.806Z,54.78
2023-08-08T21:23:37.552Z,54.81
2023-08-08T21:26:04.802Z,54.79
2023-08-08T21:28:31.986Z,54.78
2023-08-08T21:30:59.091Z,54.86
2023-08-08T21:33:25.875Z,54.90
2023-08-08T21:35:53.125Z,54.94
2023-08-08T21:38:20.238Z,54.99
2023-08-08T21:40:47.032Z,55.05
2023-08-08T21:43:14.489Z,55.06
2023-08-08T21:45:41.826Z,55.13
2023-08-08T21:48:08.658Z,55.24
2023-08-08T21:50:35.862Z,55.27
2023-08-08T21:53:03.089Z,55.35
2023-08-08T21:55:30.253Z,55.30
2023-08-08T21:57:57.356Z,55.40
2023-08-08T22:00:24.532Z,55.36
2023-08-08T22:02:51.395Z,55.42
2023-08-08T22:05:18.548Z,55.42
2023-08-08T22:07:45.774Z,55.43
2023-08-08T22:10:12.699Z,55.56
2023-08-08T22:12:40.134Z,55.61
2023-08-08T22:15:08.087Z,55.63
2023-08-08T22:17:34.926Z,55.56
2023-08-08T22:20:02.510Z,55.64
2023-08-08T22:22:29.643Z,55.63
2023-08-08T22:24:56.421Z,55.65
2023-08-08T22:27:23.908Z,55.52
2023-08-08T22:29:51.000Z,55.60
2023-08-08T22:32:18.130Z,55.71
2023-08-08T22:34:45.253Z,55.69
2023-08-08T22:37:12.400Z,55.77
2023-08-08T22:39:39.453Z,55.80
2023-08-08T22:42:06.618Z,55.81
2023-08-08T22:44:33.766Z,55.83
2023-08-08T22:47:00.898Z,55.89
2023-08-08T22:49:28.588Z,55.96
2023-08-08T22:51:55.332Z,56.00
2023-08-08T22:54:22.418Z,56.00
2023-08-08T22:56:49.913Z,55.99
2023-08-08T22:59:17.379Z,56.03
2023-08-08T23:01:44.215Z,56.09
2023-08-08T23:04:11.368Z,56.14
2023-08-08T23:06:38.484Z,56.29
2023-08-08T23:09:06.608Z,56.41
2023-08-08T23:11:33.746Z,56.31
2023-08-08T23:14:00.586Z,56.39
2023-08-08T23:16:28.080Z,56.43
2023-08-08T23:18:55.345Z,56.46
2023-08-08T23:21:24.220Z,56.50
2023-08-08T23:23:51.343Z,56.59
2023-08-08T23:26:18.142Z,56.60
2023-08-08T23:28:45.253Z,56.62
2023-08-08T23:31:12.464Z,56.76
2023-08-08T23:33:39.591Z,56.76
2023-08-08T23:36:08.204Z,56.74
2023-08-08T23:38:35.350Z,56.80
2023-08-08T23:41:02.674Z,56.86
2023-08-08T23:43:30.025Z,56.91
2023-08-08T23:45:57.584Z,56.99
2023-08-08T23:48:25.393Z,57.09
2023-08-08T23:50:52.983Z,57.08
2023-08-08T23:53:20.151Z,57.08
2023-08-08T23:55:47.049Z,57.16
2023-08-08T23:58:14.133Z,57.21
